sensor_id;sensor_type;location;lat;lon;timestamp;P1;durP1;ratioP1;P2;durP2;ratioP2
59424;SDS011;45231;44.826;20.312;2023-03-05T00:01:05;108.68;;;47.65;;
59424;SDS011;45231;44.826;20.312;2023-03-05T00:03:31;120.78;;;50.45;;
59424;SDS011;45231;44.826;20.312;2023-03-05T00:05:57;116.75;;;49.35;;
59424;SDS011;45231;44.826;20.312;2023-03-05T00:08:33;109.47;;;48.53;;
59424;SDS011;45231;44.826;20.312;2023-03-05T00:11:00;106.25;;;47.60;;
59424;SDS011;45231;44.826;20.312;2023-03-05T00:13:27;102.60;;;45.70;;
59424;SDS011;45231;44.826;20.312;2023-03-05T00:15:53;112.10;;;50.07;;
59424;SDS011;45231;44.826;20.312;2023-03-05T00:18:19;115.03;;;47.92;;
59424;SDS011;45231;44.826;20.312;2023-03-05T00:20:49;107.82;;;47.88;;
59424;SDS011;45231;44.826;20.312;2023-03-05T00:23:28;110.22;;;47.13;;
59424;SDS011;45231;44.826;20.312;2023-03-05T00:25:54;108.65;;;48.03;;
59424;SDS011;45231;44.826;20.312;2023-03-05T00:28:24;108.63;;;49.73;;
59424;SDS011;45231;44.826;20.312;2023-03-05T00:30:58;109.88;;;49.63;;
59424;SDS011;45231;44.826;20.312;2023-03-05T00:33:28;110.95;;;49.13;;
59424;SDS011;45231;44.826;20.312;2023-03-05T00:35:55;117.25;;;48.70;;
59424;SDS011;45231;44.826;20.312;2023-03-05T00:38:21;115.07;;;51.33;;
59424;SDS011;45231;44.826;20.312;2023-03-05T00:41:00;117.35;;;50.40;;
59424;SDS011;45231;44.826;20.312;2023-03-05T00:43:26;108.28;;;49.10;;
59424;SDS011;45231;44.826;20.312;2023-03-05T00:45:53;111.05;;;49.92;;
59424;SDS011;45231;44.826;20.312;2023-03-05T00:48:23;113.77;;;51.97;;
59424;SDS011;45231;44.826;20.312;2023-03-05T00:50:50;112.07;;;50.08;;
59424;SDS011;45231;44.826;20.312;2023-03-05T00:53:17;98.40;;;48.60;;
59424;SDS011;45231;44.826;20.312;2023-03-05T00:55:43;101.35;;;48.25;;
59424;SDS011;45231;44.826;20.312;2023-03-05T00:58:09;102.60;;;49.58;;
59424;SDS011;45231;44.826;20.312;2023-03-05T01:00:36;102.45;;;47.05;;
59424;SDS011;45231;44.826;20.312;2023-03-05T01:03:02;81.00;;;38.80;;
59424;SDS011;45231;44.826;20.312;2023-03-05T01:05:29;101.03;;;48.10;;
59424;SDS011;45231;44.826;20.312;2023-03-05T01:07:55;100.63;;;48.00;;
59424;SDS011;45231;44.826;20.312;2023-03-05T01:10:22;94.35;;;47.38;;
59424;SDS011;45231;44.826;20.312;2023-03-05T01:12:59;100.88;;;48.50;;
59424;SDS011;45231;44.826;20.312;2023-03-05T01:15:28;86.20;;;46.05;;
59424;SDS011;45231;44.826;20.312;2023-03-05T01:17:55;88.60;;;47.90;;
59424;SDS011;45231;44.826;20.312;2023-03-05T01:20:23;87.82;;;47.78;;
59424;SDS011;45231;44.826;20.312;2023-03-05T01:22:53;91.80;;;49.10;;
59424;SDS011;45231;44.826;20.312;2023-03-05T01:25:19;87.80;;;47.53;;
59424;SDS011;45231;44.826;20.312;2023-03-05T01:27:45;92.50;;;49.20;;
59424;SDS011;45231;44.826;20.312;2023-03-05T01:30:22;93.85;;;50.72;;
59424;SDS011;45231;44.826;20.312;2023-03-05T01:32:49;94.20;;;47.95;;
59424;SDS011;45231;44.826;20.312;2023-03-05T01:35:23;83.88;;;47.63;;
59424;SDS011;45231;44.826;20.312;2023-03-05T01:37:50;82.05;;;47.00;;
59424;SDS011;45231;44.826;20.312;2023-03-05T01:40:22;86.13;;;48.22;;
59424;SDS011;45231;44.826;20.312;2023-03-05T01:42:55;87.55;;;47.35;;
59424;SDS011;45231;44.826;20.312;2023-03-05T01:45:21;86.00;;;47.92;;
59424;SDS011;45231;44.826;20.312;2023-03-05T01:47:48;86.10;;;48.90;;
59424;SDS011;45231;44.826;20.312;2023-03-05T01:52:43;85.18;;;47.22;;
59424;SDS011;45231;44.826;20.312;2023-03-05T01:55:13;90.20;;;49.45;;
59424;SDS011;45231;44.826;20.312;2023-03-05T01:57:43;82.78;;;46.78;;
59424;SDS011;45231;44.826;20.312;2023-03-05T02:00:14;84.70;;;46.70;;
59424;SDS011;45231;44.826;20.312;2023-03-05T02:02:42;81.35;;;45.28;;
59424;SDS011;45231;44.826;20.312;2023-03-05T02:05:10;81.03;;;46.10;;
59424;SDS011;45231;44.826;20.312;2023-03-05T02:07:37;91.13;;;48.22;;
59424;SDS011;45231;44.826;20.312;2023-03-05T02:10:20;83.65;;;46.88;;
59424;SDS011;45231;44.826;20.312;2023-03-05T02:12:47;72.85;;;42.28;;
59424;SDS011;45231;44.826;20.312;2023-03-05T02:15:14;71.38;;;41.63;;
59424;SDS011;45231;44.826;20.312;2023-03-05T02:17:50;68.43;;;39.88;;
59424;SDS011;45231;44.826;20.312;2023-03-05T02:20:18;65.82;;;37.70;;
59424;SDS011;45231;44.826;20.312;2023-03-05T02:22:53;64.93;;;37.83;;
59424;SDS011;45231;44.826;20.312;2023-03-05T02:28:13;61.72;;;35.42;;
59424;SDS011;45231;44.826;20.312;2023-03-05T02:30:41;68.47;;;37.50;;
59424;SDS011;45231;44.826;20.312;2023-03-05T02:33:12;63.75;;;34.65;;
59424;SDS011;45231;44.826;20.312;2023-03-05T02:35:38;59.97;;;33.35;;
59424;SDS011;45231;44.826;20.312;2023-03-05T02:38:13;55.08;;;34.40;;
59424;SDS011;45231;44.826;20.312;2023-03-05T02:40:39;55.65;;;33.08;;
59424;SDS011;45231;44.826;20.312;2023-03-05T02:43:06;58.42;;;32.97;;
59424;SDS011;45231;44.826;20.312;2023-03-05T02:45:33;53.17;;;31.63;;
59424;SDS011;45231;44.826;20.312;2023-03-05T02:47:59;52.17;;;30.83;;
59424;SDS011;45231;44.826;20.312;2023-03-05T02:50:26;49.00;;;29.50;;
59424;SDS011;45231;44.826;20.312;2023-03-05T02:55:19;47.72;;;28.75;;
59424;SDS011;45231;44.826;20.312;2023-03-05T02:57:45;46.97;;;27.27;;
59424;SDS011;45231;44.826;20.312;2023-03-05T03:00:14;48.10;;;27.77;;
59424;SDS011;45231;44.826;20.312;2023-03-05T03:02:41;44.20;;;27.05;;
59424;SDS011;45231;44.826;20.312;2023-03-05T03:05:07;45.33;;;25.73;;
59424;SDS011;45231;44.826;20.312;2023-03-05T03:07:34;45.58;;;27.58;;
59424;SDS011;45231;44.826;20.312;2023-03-05T03:10:01;39.70;;;23.58;;
59424;SDS011;45231;44.826;20.312;2023-03-05T03:12:27;41.45;;;25.13;;
59424;SDS011;45231;44.826;20.312;2023-03-05T03:14:53;46.75;;;27.63;;
59424;SDS011;45231;44.826;20.312;2023-03-05T03:17:20;71.63;;;36.53;;
59424;SDS011;45231;44.826;20.312;2023-03-05T03:19:48;89.85;;;41.90;;
59424;SDS011;45231;44.826;20.312;2023-03-05T03:22:14;91.57;;;44.80;;
59424;SDS011;45231;44.826;20.312;2023-03-05T03:24:41;89.70;;;45.20;;
59424;SDS011;45231;44.826;20.312;2023-03-05T03:27:07;78.93;;;39.92;;
59424;SDS011;45231;44.826;20.312;2023-03-05T03:29:34;85.07;;;41.97;;
59424;SDS011;45231;44.826;20.312;2023-03-05T03:32:09;87.35;;;41.67;;
59424;SDS011;45231;44.826;20.312;2023-03-05T03:34:35;73.03;;;36.88;;
59424;SDS011;45231;44.826;20.312;2023-03-05T03:37:05;61.08;;;32.03;;
59424;SDS011;45231;44.826;20.312;2023-03-05T03:39:32;49.00;;;27.10;;
59424;SDS011;45231;44.826;20.312;2023-03-05T03:41:58;46.53;;;26.00;;
59424;SDS011;45231;44.826;20.312;2023-03-05T03:44:25;45.83;;;26.13;;
59424;SDS011;45231;44.826;20.312;2023-03-05T03:46:51;34.33;;;21.00;;
59424;SDS011;45231;44.826;20.312;2023-03-05T03:49:36;35.00;;;19.98;;
59424;SDS011;45231;44.826;20.312;2023-03-05T03:52:03;37.63;;;20.10;;
59424;SDS011;45231;44.826;20.312;2023-03-05T03:54:32;32.80;;;19.33;;
59424;SDS011;45231;44.826;20.312;2023-03-05T03:56:58;37.30;;;21.17;;
59424;SDS011;45231;44.826;20.312;2023-03-05T03:59:25;31.40;;;19.20;;
59424;SDS011;45231;44.826;20.312;2023-03-05T04:01:51;31.55;;;18.27;;
59424;SDS011;45231;44.826;20.312;2023-03-05T04:04:17;31.75;;;17.60;;
59424;SDS011;45231;44.826;20.312;2023-03-05T04:06:47;33.35;;;18.38;;
59424;SDS011;45231;44.826;20.312;2023-03-05T04:09:24;34.35;;;18.58;;
59424;SDS011;45231;44.826;20.312;2023-03-05T04:11:59;31.48;;;18.95;;
59424;SDS011;45231;44.826;20.312;2023-03-05T04:14:28;31.10;;;18.50;;
59424;SDS011;45231;44.826;20.312;2023-03-05T04:16:56;31.63;;;18.90;;
59424;SDS011;45231;44.826;20.312;2023-03-05T04:19:23;29.48;;;17.88;;
59424;SDS011;45231;44.826;20.312;2023-03-05T04:21:49;33.92;;;18.50;;
59424;SDS011;45231;44.826;20.312;2023-03-05T04:24:18;32.90;;;18.42;;
59424;SDS011;45231;44.826;20.312;2023-03-05T04:26:50;24.13;;;14.02;;
59424;SDS011;45231;44.826;20.312;2023-03-05T04:29:20;29.90;;;16.42;;
59424;SDS011;45231;44.826;20.312;2023-03-05T04:31:46;30.05;;;16.25;;
59424;SDS011;45231;44.826;20.312;2023-03-05T04:34:15;27.23;;;16.10;;
59424;SDS011;45231;44.826;20.312;2023-03-05T04:36:59;27.42;;;16.27;;
59424;SDS011;45231;44.826;20.312;2023-03-05T04:39:29;27.80;;;16.30;;
59424;SDS011;45231;44.826;20.312;2023-03-05T04:41:55;27.98;;;15.80;;
59424;SDS011;45231;44.826;20.312;2023-03-05T04:44:21;33.25;;;18.85;;
59424;SDS011;45231;44.826;20.312;2023-03-05T04:46:50;32.05;;;17.92;;
59424;SDS011;45231;44.826;20.312;2023-03-05T04:49:16;34.60;;;19.38;;
59424;SDS011;45231;44.826;20.312;2023-03-05T04:51:43;36.35;;;19.80;;
59424;SDS011;45231;44.826;20.312;2023-03-05T04:54:12;39.60;;;21.33;;
59424;SDS011;45231;44.826;20.312;2023-03-05T04:56:39;42.72;;;22.27;;
59424;SDS011;45231;44.826;20.312;2023-03-05T04:59:05;39.17;;;21.40;;
59424;SDS011;45231;44.826;20.312;2023-03-05T05:01:31;38.05;;;21.98;;
59424;SDS011;45231;44.826;20.312;2023-03-05T05:04:20;41.08;;;22.73;;
59424;SDS011;45231;44.826;20.312;2023-03-05T05:06:47;45.22;;;23.05;;
59424;SDS011;45231;44.826;20.312;2023-03-05T05:09:13;42.55;;;22.50;;
59424;SDS011;45231;44.826;20.312;2023-03-05T05:11:39;37.55;;;20.63;;
59424;SDS011;45231;44.826;20.312;2023-03-05T05:14:12;33.63;;;20.58;;
59424;SDS011;45231;44.826;20.312;2023-03-05T05:16:40;35.33;;;19.52;;
59424;SDS011;45231;44.826;20.312;2023-03-05T05:19:14;33.00;;;19.13;;
59424;SDS011;45231;44.826;20.312;2023-03-05T05:21:41;36.40;;;19.30;;
59424;SDS011;45231;44.826;20.312;2023-03-05T05:24:09;33.45;;;18.23;;
59424;SDS011;45231;44.826;20.312;2023-03-05T05:26:59;29.98;;;16.95;;
59424;SDS011;45231;44.826;20.312;2023-03-05T05:29:24;33.78;;;18.42;;
59424;SDS011;45231;44.826;20.312;2023-03-05T05:31:51;30.80;;;19.08;;
59424;SDS011;45231;44.826;20.312;2023-03-05T05:36:44;32.83;;;18.25;;
59424;SDS011;45231;44.826;20.312;2023-03-05T05:39:10;30.40;;;17.90;;
59424;SDS011;45231;44.826;20.312;2023-03-05T05:41:37;31.03;;;18.33;;
59424;SDS011;45231;44.826;20.312;2023-03-05T05:44:09;30.15;;;17.40;;
59424;SDS011;45231;44.826;20.312;2023-03-05T05:46:35;29.10;;;17.95;;
59424;SDS011;45231;44.826;20.312;2023-03-05T05:49:01;28.77;;;18.90;;
59424;SDS011;45231;44.826;20.312;2023-03-05T05:51:27;33.55;;;19.85;;
59424;SDS011;45231;44.826;20.312;2023-03-05T05:53:53;32.43;;;21.10;;
59424;SDS011;45231;44.826;20.312;2023-03-05T05:56:20;36.53;;;20.95;;
59424;SDS011;45231;44.826;20.312;2023-03-05T05:58:47;33.33;;;21.33;;
59424;SDS011;45231;44.826;20.312;2023-03-05T06:01:19;31.02;;;20.90;;
59424;SDS011;45231;44.826;20.312;2023-03-05T06:03:46;31.23;;;19.80;;
59424;SDS011;45231;44.826;20.312;2023-03-05T06:06:14;36.40;;;21.38;;
59424;SDS011;45231;44.826;20.312;2023-03-05T06:08:41;31.92;;;21.05;;
59424;SDS011;45231;44.826;20.312;2023-03-05T06:11:10;31.38;;;20.65;;
59424;SDS011;45231;44.826;20.312;2023-03-05T06:13:36;28.55;;;19.83;;
59424;SDS011;45231;44.826;20.312;2023-03-05T06:16:04;29.23;;;19.35;;
59424;SDS011;45231;44.826;20.312;2023-03-05T06:18:31;33.20;;;20.98;;
59424;SDS011;45231;44.826;20.312;2023-03-05T06:20:59;32.88;;;20.48;;
59424;SDS011;45231;44.826;20.312;2023-03-05T06:23:25;30.17;;;19.40;;
59424;SDS011;45231;44.826;20.312;2023-03-05T06:25:54;31.88;;;20.30;;
59424;SDS011;45231;44.826;20.312;2023-03-05T06:28:20;29.25;;;18.20;;
59424;SDS011;45231;44.826;20.312;2023-03-05T06:30:46;29.30;;;19.08;;
59424;SDS011;45231;44.826;20.312;2023-03-05T06:33:12;30.52;;;19.30;;
59424;SDS011;45231;44.826;20.312;2023-03-05T06:35:38;30.07;;;18.53;;
59424;SDS011;45231;44.826;20.312;2023-03-05T06:38:05;32.53;;;19.58;;
59424;SDS011;45231;44.826;20.312;2023-03-05T06:40:34;32.40;;;18.83;;
59424;SDS011;45231;44.826;20.312;2023-03-05T06:43:00;30.33;;;18.60;;
59424;SDS011;45231;44.826;20.312;2023-03-05T06:45:27;31.15;;;19.48;;
59424;SDS011;45231;44.826;20.312;2023-03-05T06:47:53;32.07;;;18.87;;
59424;SDS011;45231;44.826;20.312;2023-03-05T06:50:22;30.25;;;18.25;;
59424;SDS011;45231;44.826;20.312;2023-03-05T06:53:13;32.10;;;19.30;;
59424;SDS011;45231;44.826;20.312;2023-03-05T06:55:42;29.88;;;19.45;;
59424;SDS011;45231;44.826;20.312;2023-03-05T06:58:12;35.92;;;20.15;;
59424;SDS011;45231;44.826;20.312;2023-03-05T07:00:38;31.48;;;20.08;;
59424;SDS011;45231;44.826;20.312;2023-03-05T07:03:04;32.67;;;19.58;;
59424;SDS011;45231;44.826;20.312;2023-03-05T07:05:30;32.40;;;19.50;;
59424;SDS011;45231;44.826;20.312;2023-03-05T07:08:07;30.25;;;19.10;;
59424;SDS011;45231;44.826;20.312;2023-03-05T07:10:43;29.63;;;18.25;;
59424;SDS011;45231;44.826;20.312;2023-03-05T07:13:12;33.35;;;19.98;;
59424;SDS011;45231;44.826;20.312;2023-03-05T07:15:39;32.85;;;19.65;;
59424;SDS011;45231;44.826;20.312;2023-03-05T07:20:35;33.40;;;18.80;;
59424;SDS011;45231;44.826;20.312;2023-03-05T07:23:02;33.30;;;20.13;;
59424;SDS011;45231;44.826;20.312;2023-03-05T07:25:28;33.55;;;19.42;;
59424;SDS011;45231;44.826;20.312;2023-03-05T07:27:55;33.95;;;20.60;;
59424;SDS011;45231;44.826;20.312;2023-03-05T07:30:21;32.60;;;19.70;;
59424;SDS011;45231;44.826;20.312;2023-03-05T07:32:48;33.17;;;19.60;;
59424;SDS011;45231;44.826;20.312;2023-03-05T07:35:23;32.53;;;19.10;;
59424;SDS011;45231;44.826;20.312;2023-03-05T07:38:00;32.38;;;18.88;;
59424;SDS011;45231;44.826;20.312;2023-03-05T07:40:48;33.53;;;19.13;;
59424;SDS011;45231;44.826;20.312;2023-03-05T07:43:13;37.22;;;23.15;;
59424;SDS011;45231;44.826;20.312;2023-03-05T07:45:48;43.42;;;26.60;;
59424;SDS011;45231;44.826;20.312;2023-03-05T07:48:20;34.35;;;23.38;;
59424;SDS011;45231;44.826;20.312;2023-03-05T07:50:59;34.78;;;22.05;;
59424;SDS011;45231;44.826;20.312;2023-03-05T07:53:28;36.55;;;22.50;;
59424;SDS011;45231;44.826;20.312;2023-03-05T07:55:54;24.42;;;16.38;;
59424;SDS011;45231;44.826;20.312;2023-03-05T07:58:20;26.57;;;15.47;;
59424;SDS011;45231;44.826;20.312;2023-03-05T08:00:47;25.50;;;15.32;;
59424;SDS011;45231;44.826;20.312;2023-03-05T08:03:16;21.55;;;14.00;;
59424;SDS011;45231;44.826;20.312;2023-03-05T08:06:04;24.77;;;14.48;;
59424;SDS011;45231;44.826;20.312;2023-03-05T08:08:30;22.85;;;14.60;;
59424;SDS011;45231;44.826;20.312;2023-03-05T08:11:08;22.95;;;14.57;;
59424;SDS011;45231;44.826;20.312;2023-03-05T08:13:35;21.45;;;13.82;;
59424;SDS011;45231;44.826;20.312;2023-03-05T08:16:08;23.35;;;14.38;;
59424;SDS011;45231;44.826;20.312;2023-03-05T08:18:35;21.02;;;14.48;;
59424;SDS011;45231;44.826;20.312;2023-03-05T08:21:01;23.02;;;13.63;;
59424;SDS011;45231;44.826;20.312;2023-03-05T08:23:27;18.37;;;12.60;;
59424;SDS011;45231;44.826;20.312;2023-03-05T08:25:54;19.70;;;13.57;;
59424;SDS011;45231;44.826;20.312;2023-03-05T08:28:20;21.77;;;13.10;;
59424;SDS011;45231;44.826;20.312;2023-03-05T08:30:46;16.83;;;11.60;;
59424;SDS011;45231;44.826;20.312;2023-03-05T08:33:13;18.80;;;12.50;;
59424;SDS011;45231;44.826;20.312;2023-03-05T08:35:41;17.75;;;11.43;;
59424;SDS011;45231;44.826;20.312;2023-03-05T08:38:08;18.65;;;12.38;;
59424;SDS011;45231;44.826;20.312;2023-03-05T08:40:36;17.05;;;11.45;;
59424;SDS011;45231;44.826;20.312;2023-03-05T08:43:02;17.52;;;12.40;;
59424;SDS011;45231;44.826;20.312;2023-03-05T08:45:29;35.45;;;19.15;;
59424;SDS011;45231;44.826;20.312;2023-03-05T08:47:56;18.38;;;12.55;;
59424;SDS011;45231;44.826;20.312;2023-03-05T08:50:22;23.08;;;14.55;;
59424;SDS011;45231;44.826;20.312;2023-03-05T08:52:48;20.65;;;12.98;;
59424;SDS011;45231;44.826;20.312;2023-03-05T08:55:24;16.60;;;11.70;;
59424;SDS011;45231;44.826;20.312;2023-03-05T08:57:50;15.50;;;10.68;;
59424;SDS011;45231;44.826;20.312;2023-03-05T09:00:16;19.10;;;12.70;;
59424;SDS011;45231;44.826;20.312;2023-03-05T09:02:42;15.85;;;11.88;;
59424;SDS011;45231;44.826;20.312;2023-03-05T09:05:08;15.00;;;10.60;;
59424;SDS011;45231;44.826;20.312;2023-03-05T09:07:34;14.88;;;10.45;;
59424;SDS011;45231;44.826;20.312;2023-03-05T09:10:02;15.45;;;11.05;;
59424;SDS011;45231;44.826;20.312;2023-03-05T09:12:28;15.23;;;10.70;;
59424;SDS011;45231;44.826;20.312;2023-03-05T09:14:54;15.20;;;11.02;;
59424;SDS011;45231;44.826;20.312;2023-03-05T09:17:21;13.82;;;10.48;;
59424;SDS011;45231;44.826;20.312;2023-03-05T09:19:47;15.57;;;10.93;;
59424;SDS011;45231;44.826;20.312;2023-03-05T09:22:13;18.13;;;11.25;;
59424;SDS011;45231;44.826;20.312;2023-03-05T09:24:39;18.30;;;12.13;;
59424;SDS011;45231;44.826;20.312;2023-03-05T09:27:08;22.10;;;11.40;;
59424;SDS011;45231;44.826;20.312;2023-03-05T09:29:34;16.98;;;11.25;;
59424;SDS011;45231;44.826;20.312;2023-03-05T09:32:00;14.25;;;10.98;;
59424;SDS011;45231;44.826;20.312;2023-03-05T09:34:26;19.30;;;13.80;;
59424;SDS011;45231;44.826;20.312;2023-03-05T09:36:52;22.40;;;14.52;;
59424;SDS011;45231;44.826;20.312;2023-03-05T09:39:18;16.63;;;12.20;;
59424;SDS011;45231;44.826;20.312;2023-03-05T09:42:01;19.85;;;12.88;;
59424;SDS011;45231;44.826;20.312;2023-03-05T09:47:07;17.58;;;11.10;;
59424;SDS011;45231;44.826;20.312;2023-03-05T09:52:20;17.65;;;11.63;;
59424;SDS011;45231;44.826;20.312;2023-03-05T09:54:49;15.50;;;10.82;;
59424;SDS011;45231;44.826;20.312;2023-03-05T09:57:18;14.32;;;11.32;;
59424;SDS011;45231;44.826;20.312;2023-03-05T09:59:55;16.65;;;11.18;;
59424;SDS011;45231;44.826;20.312;2023-03-05T10:02:29;17.08;;;10.95;;
59424;SDS011;45231;44.826;20.312;2023-03-05T10:05:11;16.77;;;10.73;;
59424;SDS011;45231;44.826;20.312;2023-03-05T10:07:40;15.38;;;10.50;;
59424;SDS011;45231;44.826;20.312;2023-03-05T10:10:11;16.02;;;10.77;;
59424;SDS011;45231;44.826;20.312;2023-03-05T10:12:45;14.68;;;10.23;;
59424;SDS011;45231;44.826;20.312;2023-03-05T10:15:14;15.30;;;11.48;;
59424;SDS011;45231;44.826;20.312;2023-03-05T10:32:43;14.93;;;10.90;;
59424;SDS011;45231;44.826;20.312;2023-03-05T10:45:30;16.77;;;11.13;;
59424;SDS011;45231;44.826;20.312;2023-03-05T10:50:27;16.80;;;11.30;;
59424;SDS011;45231;44.826;20.312;2023-03-05T10:55:31;16.00;;;11.77;;
59424;SDS011;45231;44.826;20.312;2023-03-05T10:57:57;15.55;;;10.73;;
59424;SDS011;45231;44.826;20.312;2023-03-05T11:00:26;16.58;;;11.52;;
59424;SDS011;45231;44.826;20.312;2023-03-05T11:03:04;16.23;;;11.27;;
59424;SDS011;45231;44.826;20.312;2023-03-05T11:05:35;16.10;;;11.60;;
59424;SDS011;45231;44.826;20.312;2023-03-05T11:08:13;15.63;;;10.60;;
59424;SDS011;45231;44.826;20.312;2023-03-05T11:10:47;15.93;;;10.52;;
59424;SDS011;45231;44.826;20.312;2023-03-05T11:13:19;18.77;;;9.63;;
59424;SDS011;45231;44.826;20.312;2023-03-05T11:15:57;16.70;;;9.82;;
59424;SDS011;45231;44.826;20.312;2023-03-05T11:18:24;16.35;;;10.13;;
59424;SDS011;45231;44.826;20.312;2023-03-05T11:20:51;14.77;;;10.13;;
59424;SDS011;45231;44.826;20.312;2023-03-05T11:25:49;14.32;;;9.75;;
59424;SDS011;45231;44.826;20.312;2023-03-05T11:28:21;16.30;;;9.60;;
59424;SDS011;45231;44.826;20.312;2023-03-05T11:30:58;15.07;;;10.65;;
59424;SDS011;45231;44.826;20.312;2023-03-05T11:33:25;14.40;;;10.13;;
59424;SDS011;45231;44.826;20.312;2023-03-05T11:35:53;18.73;;;10.65;;
59424;SDS011;45231;44.826;20.312;2023-03-05T11:38:30;15.40;;;10.93;;
59424;SDS011;45231;44.826;20.312;2023-03-05T11:40:56;14.20;;;9.80;;
59424;SDS011;45231;44.826;20.312;2023-03-05T11:43:23;14.82;;;10.07;;
59424;SDS011;45231;44.826;20.312;2023-03-05T11:45:51;14.40;;;9.10;;
59424;SDS011;45231;44.826;20.312;2023-03-05T11:50:54;15.75;;;10.13;;
59424;SDS011;45231;44.826;20.312;2023-03-05T11:53:26;15.50;;;10.00;;
59424;SDS011;45231;44.826;20.312;2023-03-05T11:55:55;15.20;;;10.68;;
59424;SDS011;45231;44.826;20.312;2023-03-05T12:00:51;15.35;;;11.02;;
59424;SDS011;45231;44.826;20.312;2023-03-05T12:03:24;16.70;;;9.98;;
59424;SDS011;45231;44.826;20.312;2023-03-05T12:05:58;14.85;;;9.32;;
59424;SDS011;45231;44.826;20.312;2023-03-05T12:08:34;12.95;;;9.23;;
59424;SDS011;45231;44.826;20.312;2023-03-05T12:11:04;14.25;;;9.60;;
59424;SDS011;45231;44.826;20.312;2023-03-05T12:13:34;12.50;;;8.57;;
59424;SDS011;45231;44.826;20.312;2023-03-05T12:23:57;14.00;;;9.05;;
59424;SDS011;45231;44.826;20.312;2023-03-05T12:29:25;14.80;;;9.88;;
59424;SDS011;45231;44.826;20.312;2023-03-05T12:31:52;14.85;;;9.73;;
59424;SDS011;45231;44.826;20.312;2023-03-05T12:47:46;12.27;;;8.30;;
59424;SDS011;45231;44.826;20.312;2023-03-05T12:52:58;11.85;;;7.47;;
59424;SDS011;45231;44.826;20.312;2023-03-05T12:55:27;12.52;;;7.07;;
59424;SDS011;45231;44.826;20.312;2023-03-05T12:57:59;10.75;;;6.65;;
59424;SDS011;45231;44.826;20.312;2023-03-05T13:02:54;11.50;;;7.55;;
59424;SDS011;45231;44.826;20.312;2023-03-05T13:05:26;15.57;;;8.88;;
59424;SDS011;45231;44.826;20.312;2023-03-05T13:08:08;15.07;;;9.35;;
59424;SDS011;45231;44.826;20.312;2023-03-05T13:10:34;10.98;;;6.80;;
59424;SDS011;45231;44.826;20.312;2023-03-05T13:13:00;11.07;;;6.97;;
59424;SDS011;45231;44.826;20.312;2023-03-05T13:15:26;10.00;;;6.30;;
59424;SDS011;45231;44.826;20.312;2023-03-05T13:23:23;11.57;;;6.05;;
59424;SDS011;45231;44.826;20.312;2023-03-05T13:26:01;13.63;;;7.30;;
59424;SDS011;45231;44.826;20.312;2023-03-05T13:28:28;12.10;;;7.00;;
59424;SDS011;45231;44.826;20.312;2023-03-05T13:31:01;12.20;;;6.93;;
59424;SDS011;45231;44.826;20.312;2023-03-05T13:33:31;11.45;;;6.55;;
59424;SDS011;45231;44.826;20.312;2023-03-05T13:35:58;16.02;;;7.15;;
59424;SDS011;45231;44.826;20.312;2023-03-05T13:38:28;12.88;;;7.82;;
59424;SDS011;45231;44.826;20.312;2023-03-05T13:41:00;11.88;;;7.28;;
59424;SDS011;45231;44.826;20.312;2023-03-05T13:43:27;11.32;;;7.63;;
59424;SDS011;45231;44.826;20.312;2023-03-05T13:45:53;10.23;;;6.78;;
59424;SDS011;45231;44.826;20.312;2023-03-05T13:48:20;10.93;;;6.88;;
59424;SDS011;45231;44.826;20.312;2023-03-05T13:50:51;11.27;;;7.30;;
59424;SDS011;45231;44.826;20.312;2023-03-05T13:53:22;13.18;;;8.02;;
59424;SDS011;45231;44.826;20.312;2023-03-05T13:55:50;10.95;;;7.00;;
59424;SDS011;45231;44.826;20.312;2023-03-05T13:59:02;11.82;;;7.72;;
59424;SDS011;45231;44.826;20.312;2023-03-05T14:01:03;20.77;;;7.47;;
59424;SDS011;45231;44.826;20.312;2023-03-05T14:03:30;13.77;;;7.47;;
59424;SDS011;45231;44.826;20.312;2023-03-05T14:05:58;11.52;;;7.00;;
59424;SDS011;45231;44.826;20.312;2023-03-05T14:08:24;10.90;;;6.75;;
59424;SDS011;45231;44.826;20.312;2023-03-05T14:13:18;11.05;;;6.78;;
59424;SDS011;45231;44.826;20.312;2023-03-05T14:16:04;12.15;;;6.85;;
59424;SDS011;45231;44.826;20.312;2023-03-05T14:18:31;12.95;;;7.22;;
59424;SDS011;45231;44.826;20.312;2023-03-05T14:21:01;13.05;;;8.18;;
59424;SDS011;45231;44.826;20.312;2023-03-05T14:26:17;18.90;;;12.23;;
59424;SDS011;45231;44.826;20.312;2023-03-05T14:28:52;14.10;;;8.30;;
59424;SDS011;45231;44.826;20.312;2023-03-05T14:31:18;12.18;;;7.50;;
59424;SDS011;45231;44.826;20.312;2023-03-05T14:33:44;12.10;;;7.53;;
59424;SDS011;45231;44.826;20.312;2023-03-05T14:36:11;14.35;;;7.95;;
59424;SDS011;45231;44.826;20.312;2023-03-05T14:38:39;16.05;;;8.70;;
59424;SDS011;45231;44.826;20.312;2023-03-05T14:41:18;14.82;;;7.90;;
59424;SDS011;45231;44.826;20.312;2023-03-05T14:43:44;15.40;;;8.18;;
59424;SDS011;45231;44.826;20.312;2023-03-05T14:46:10;15.05;;;7.63;;
59424;SDS011;45231;44.826;20.312;2023-03-05T14:48:36;10.90;;;6.83;;
59424;SDS011;45231;44.826;20.312;2023-03-05T14:51:03;13.03;;;7.63;;
59424;SDS011;45231;44.826;20.312;2023-03-05T14:55:56;11.27;;;6.43;;
59424;SDS011;45231;44.826;20.312;2023-03-05T14:58:23;13.33;;;7.13;;
59424;SDS011;45231;44.826;20.312;2023-03-05T15:00:50;12.40;;;7.07;;
59424;SDS011;45231;44.826;20.312;2023-03-05T15:03:17;13.07;;;7.20;;
59424;SDS011;45231;44.826;20.312;2023-03-05T15:05:45;13.32;;;8.15;;
59424;SDS011;45231;44.826;20.312;2023-03-05T15:08:13;12.48;;;7.60;;
59424;SDS011;45231;44.826;20.312;2023-03-05T15:10:39;11.50;;;6.93;;
59424;SDS011;45231;44.826;20.312;2023-03-05T15:13:05;12.82;;;7.68;;
59424;SDS011;45231;44.826;20.312;2023-03-05T15:15:31;12.37;;;7.07;;
59424;SDS011;45231;44.826;20.312;2023-03-05T15:17:57;13.52;;;7.75;;
59424;SDS011;45231;44.826;20.312;2023-03-05T15:20:25;12.27;;;6.95;;
59424;SDS011;45231;44.826;20.312;2023-03-05T15:22:52;12.88;;;7.10;;
59424;SDS011;45231;44.826;20.312;2023-03-05T15:25:19;11.60;;;6.63;;
59424;SDS011;45231;44.826;20.312;2023-03-05T15:27:45;18.00;;;8.77;;
59424;SDS011;45231;44.826;20.312;2023-03-05T15:32:51;11.68;;;6.95;;
59424;SDS011;45231;44.826;20.312;2023-03-05T15:35:17;10.98;;;6.75;;
59424;SDS011;45231;44.826;20.312;2023-03-05T15:37:44;16.20;;;7.90;;
59424;SDS011;45231;44.826;20.312;2023-03-05T15:40:13;16.20;;;9.25;;
59424;SDS011;45231;44.826;20.312;2023-03-05T15:42:40;17.52;;;8.30;;
59424;SDS011;45231;44.826;20.312;2023-03-05T15:45:07;16.85;;;8.13;;
59424;SDS011;45231;44.826;20.312;2023-03-05T15:47:34;16.63;;;8.80;;
59424;SDS011;45231;44.826;20.312;2023-03-05T15:50:04;15.48;;;7.65;;
59424;SDS011;45231;44.826;20.312;2023-03-05T15:54:58;14.02;;;8.30;;
59424;SDS011;45231;44.826;20.312;2023-03-05T15:57:24;14.65;;;8.18;;
59424;SDS011;45231;44.826;20.312;2023-03-05T15:59:51;15.77;;;8.20;;
59424;SDS011;45231;44.826;20.312;2023-03-05T16:02:18;16.42;;;8.90;;
59424;SDS011;45231;44.826;20.312;2023-03-05T16:04:52;14.70;;;8.32;;